Time;durP1;ratioP1;P1;durP2;ratioP2;P2;SDS_P1;SDS_P2;PMS_P1;PMS_P2;Temp;Humidity;BMP_temperature;BMP_pressure;BME280_temperature;BME280_humidity;BME280_pressure;Samples;Min_cycle;Max_cycle;Signal;HPM_P1;HPM_P2
2022/08/10 00:00:45;;;;;;;5.23;3.50;;;24.60;49.60;;;;;;5034660;28;20229;-69
2022/08/10 00:03:10;;;;;;;4.33;3.87;;;24.50;49.60;;;;;;5053655;28;20309;-69
2022/08/10 00:05:36;;;;;;;3.93;3.73;;;24.50;49.50;;;;;;5068104;28;20234;-69
2022/08/10 00:08:02;;;;;;;4.13;3.40;;;24.50;49.70;;;;;;5037662;28;20604;-69
2022/08/10 00:10:28;;;;;;;4.53;4.20;;;24.50;49.70;;;;;;5059719;28;20302;-69
2022/08/10 00:12:54;;;;;;;3.83;3.53;;;24.40;49.70;;;;;;5021217;28;20227;-68
2022/08/10 00:15:21;;;;;;;4.67;3.80;;;24.40;50.20;;;;;;5066890;28;20214;-70
2022/08/10 00:17:48;;;;;;;3.47;3.23;;;24.30;49.80;;;;;;5035137;28;20253;-69
2022/08/10 00:20:14;;;;;;;4.23;3.77;;;24.30;50.10;;;;;;5072496;28;20480;-69
2022/08/10 00:22:39;;;;;;;3.27;3.07;;;24.20;49.90;;;;;;5049477;28;20465;-69
2022/08/10 00:25:07;;;;;;;3.87;3.20;;;24.20;50.10;;;;;;5048859;28;20464;-69
2022/08/10 00:27:32;;;;;;;4.23;3.93;;;24.20;49.90;;;;;;5046388;28;20246;-69
2022/08/10 00:29:58;;;;;;;4.43;3.83;;;24.10;49.90;;;;;;5049530;28;20491;-68
2022/08/10 00:32:24;;;;;;;3.87;3.57;;;24.10;50.20;;;;;;5041024;28;20219;-69
2022/08/10 00:34:50;;;;;;;3.43;3.23;;;24.10;50.00;;;;;;5049486;28;20272;-69
2022/08/10 00:37:17;;;;;;;4.10;3.70;;;24.10;50.00;;;;;;5026934;28;20229;-69
2022/08/10 00:39:44;;;;;;;4.20;3.90;;;24.10;50.10;;;;;;5077059;28;20960;-68
2022/08/10 00:42:11;;;;;;;4.20;3.90;;;24.10;50.40;;;;;;5053755;28;20460;-69
2022/08/10 00:44:45;;;;;;;4.07;3.77;;;24.10;49.90;;;;;;5053823;28;20794;-69
2022/08/10 00:47:12;;;;;;;5.90;4.10;;;23.90;50.00;;;;;;5074785;28;20448;-69
2022/08/10 00:49:39;;;;;;;4.00;3.70;;;23.90;50.00;;;;;;5053923;28;20429;-68
2022/08/10 00:52:05;;;;;;;4.37;4.07;;;23.90;50.10;;;;;;5069672;28;20506;-68
2022/08/10 00:54:33;;;;;;;4.07;3.80;;;23.90;50.00;;;;;;5070392;28;20449;-69
2022/08/10 00:56:59;;;;;;;4.00;3.70;;;23.90;49.90;;;;;;5067456;28;20452;-69
2022/08/10 00:59:25;;;;;;;4.53;4.13;;;23.90;49.90;;;;;;5052990;28;20441;-69
2022/08/10 01:01:50;;;;;;;4.27;3.97;;;23.80;49.90;;;;;;5062769;28;20219;-69
2022/08/10 01:04:16;;;;;;;6.17;3.57;;;23.80;50.10;;;;;;5047180;28;20226;-69
2022/08/10 01:07:12;;;;;;;5.30;4.10;;;23.70;50.00;;;;;;5051869;28;20233;-69
2022/08/10 01:09:50;;;;;;;4.70;3.70;;;23.70;50.00;;;;;;5045114;28;20229;-68
2022/08/10 01:12:32;;;;;;;4.20;3.80;;;23.70;50.00;;;;;;5050980;28;20449;-69
2022/08/10 01:15:23;;;;;;;4.97;4.60;;;23.60;50.20;;;;;;5051812;28;20794;-69
2022/08/10 01:17:51;;;;;;;3.80;3.57;;;23.60;50.20;;;;;;5052480;28;20507;-69
2022/08/10 01:20:43;;;;;;;4.40;4.00;;;23.50;50.30;;;;;;5047321;28;20962;-68
2022/08/10 01:24:13;;;;;;;3.40;3.20;;;23.50;50.40;;;;;;5009978;28;20823;-69
2022/08/10 01:27:02;;;;;;;3.37;3.17;;;23.40;50.30;;;;;;4985783;28;20455;-68
2022/08/10 01:29:41;;;;;;;4.30;4.03;;;23.40;51.00;;;;;;4986442;28;20468;-69
2022/08/10 01:32:10;;;;;;;4.43;4.03;;;23.40;50.50;;;;;;5019959;28;20998;-69
2022/08/10 01:35:09;;;;;;;4.37;4.00;;;23.40;50.50;;;;;;5051910;28;20437;-68
2022/08/10 01:37:38;;;;;;;4.83;3.60;;;23.30;50.70;;;;;;5048797;28;20445;-69
2022/08/10 01:40:08;;;;;;;4.20;3.80;;;23.20;50.50;;;;;;5052982;28;20444;-68
2022/08/10 01:42:37;;;;;;;6.23;4.13;;;23.30;50.60;;;;;;5034116;28;20449;-68
2022/08/10 01:45:05;;;;;;;4.50;4.20;;;23.30;50.60;;;;;;5059617;28;21031;-68
2022/08/10 01:50:31;;;;;;;5.50;3.60;;;23.30;50.50;;;;;;5051692;28;20968;-69
2022/08/10 01:53:20;;;;;;;4.33;3.90;;;23.30;50.50;;;;;;5047143;28;20607;-68
2022/08/10 01:55:48;;;;;;;4.20;3.80;;;23.10;50.40;;;;;;5065197;28;20449;-69
2022/08/10 01:58:17;;;;;;;4.20;3.90;;;23.20;50.50;;;;;;5065607;28;20521;-69
2022/08/10 02:00:47;;;;;;;4.30;3.97;;;23.10;50.60;;;;;;5056205;28;20440;-68
2022/08/10 02:03:15;;;;;;;4.70;4.30;;;23.10;50.60;;;;;;5038706;28;20460;-69
2022/08/10 02:05:43;;;;;;;5.13;4.20;;;23.10;50.60;;;;;;5052134;28;20440;-68
2022/08/10 02:08:13;;;;;;;4.17;3.80;;;23.10;50.60;;;;;;5033513;28;20466;-68
2022/08/10 02:10:42;;;;;;;4.00;3.80;;;23.00;50.60;;;;;;5033477;28;20468;-68
2022/08/10 02:13:09;;;;;;;5.23;4.83;;;23.00;50.60;;;;;;5020053;28;20457;-68
2022/08/10 02:15:37;;;;;;;7.40;3.90;;;23.00;50.60;;;;;;5051268;28;20839;-68
2022/08/10 02:18:05;;;;;;;4.50;3.70;;;23.00;50.70;;;;;;5070553;28;21050;-68
2022/08/10 02:20:40;;;;;;;10.73;3.97;;;22.90;50.60;;;;;;5069038;28;20453;-68
2022/08/10 02:23:11;;;;;;;4.63;4.33;;;22.90;50.70;;;;;;5060310;28;20499;-68
2022/08/10 02:25:38;;;;;;;3.90;3.50;;;22.90;50.70;;;;;;5039187;28;20461;-68
2022/08/10 02:28:06;;;;;;;3.97;3.63;;;22.90;50.60;;;;;;5061075;28;20483;-68
2022/08/10 02:30:33;;;;;;;4.87;4.40;;;22.80;50.60;;;;;;5066799;28;20463;-69
2022/08/10 02:33:00;;;;;;;4.50;4.10;;;22.90;50.70;;;;;;5035769;28;20445;-68
2022/08/10 02:35:27;;;;;;;4.50;4.10;;;22.80;50.70;;;;;;5035429;28;20514;-68
2022/08/10 02:38:00;;;;;;;4.07;3.77;;;22.80;51.10;;;;;;5052960;28;20456;-69
2022/08/10 02:40:30;;;;;;;3.70;3.40;;;22.80;50.70;;;;;;5072642;28;21009;-69
2022/08/10 02:43:24;;;;;;;4.10;3.80;;;22.70;50.70;;;;;;5045512;28;20475;-68
2022/08/10 02:45:58;;;;;;;4.20;3.90;;;22.70;50.70;;;;;;5051550;28;20548;-68
2022/08/10 02:48:40;;;;;;;4.73;4.33;;;22.70;50.70;;;;;;5047966;28;20476;-68
2022/08/10 02:51:13;;;;;;;3.80;3.60;;;22.60;50.70;;;;;;5031345;28;20998;-69
2022/08/10 02:53:49;;;;;;;3.90;3.60;;;22.60;50.70;;;;;;5067570;28;20607;-68
2022/08/10 02:56:39;;;;;;;3.83;3.63;;;22.60;50.80;;;;;;5052501;28;20507;-68
2022/08/10 02:59:15;;;;;;;4.13;3.83;;;22.60;50.80;;;;;;5033247;28;20453;-69
2022/08/10 03:01:43;;;;;;;6.60;3.80;;;22.50;50.70;;;;;;5046965;28;20878;-69
2022/08/10 03:04:20;;;;;;;3.67;3.40;;;22.50;50.70;;;;;;5046291;28;20465;-69
2022/08/10 03:07:00;;;;;;;5.00;4.30;;;22.50;50.70;;;;;;5039240;28;20945;-68
2022/08/10 03:09:29;;;;;;;3.97;3.67;;;22.50;50.80;;;;;;5021092;28;20483;-69
2022/08/10 03:11:56;;;;;;;4.40;4.10;;;22.50;50.80;;;;;;5066904;28;20532;-68
2022/08/10 03:14:24;;;;;;;4.30;3.90;;;22.40;51.10;;;;;;5029292;28;20460;-69
2022/08/10 03:16:51;;;;;;;3.93;3.53;;;22.40;50.70;;;;;;5050996;28;20540;-70
2022/08/10 03:19:19;;;;;;;4.27;3.97;;;22.40;50.80;;;;;;5068529;28;20481;-69
2022/08/10 03:21:47;;;;;;;4.40;4.10;;;22.40;50.70;;;;;;5062905;28;20469;-69
2022/08/10 03:24:21;;;;;;;5.10;3.87;;;22.40;50.80;;;;;;5078553;27;20578;-68
2022/08/10 03:26:49;;;;;;;4.10;3.80;;;22.30;50.70;;;;;;5040563;28;20524;-70
2022/08/10 03:29:18;;;;;;;3.93;3.63;;;22.30;50.80;;;;;;5067730;28;20446;-68
2022/08/10 03:31:45;;;;;;;3.57;3.27;;;22.30;50.80;;;;;;5046812;28;20450;-68
2022/08/10 03:34:12;;;;;;;4.20;3.90;;;22.30;51.00;;;;;;5034152;28;20494;-68
2022/08/10 03:36:38;;;;;;;4.30;3.90;;;22.30;50.90;;;;;;5066362;28;20491;-69
2022/08/10 03:39:04;;;;;;;3.50;3.20;;;22.20;50.90;;;;;;5073967;28;20488;-68
2022/08/10 03:41:35;;;;;;;4.60;4.13;;;22.20;50.80;;;;;;5079854;28;20229;-68
2022/08/10 03:44:03;;;;;;;4.20;3.80;;;22.20;50.80;;;;;;5068428;28;20229;-68
2022/08/10 03:46:30;;;;;;;4.07;3.77;;;22.20;50.80;;;;;;5084616;27;20523;-69
2022/08/10 03:49:00;;;;;;;5.97;4.00;;;22.20;50.80;;;;;;5087179;27;20456;-68
2022/08/10 03:51:26;;;;;;;4.20;3.90;;;22.20;50.80;;;;;;5084041;27;20460;-68
2022/08/10 03:53:52;;;;;;;3.57;3.30;;;22.10;50.60;;;;;;5080296;27;20894;-69
2022/08/10 03:56:19;;;;;;;4.07;3.50;;;22.10;50.60;;;;;;5076777;28;20536;-68
2022/08/10 03:58:45;;;;;;;4.10;3.80;;;22.10;50.70;;;;;;5080422;28;20541;-69
2022/08/10 04:01:13;;;;;;;4.30;3.40;;;22.10;50.70;;;;;;5078057;28;20459;-69
2022/08/10 04:03:39;;;;;;;4.20;3.90;;;22.10;50.90;;;;;;5081727;27;20444;-68
2022/08/10 04:06:05;;;;;;;5.33;4.00;;;22.00;50.90;;;;;;5077923;28;20536;-69
2022/08/10 04:08:31;;;;;;;3.90;3.60;;;22.00;51.00;;;;;;5085825;27;20218;-68
2022/08/10 04:10:57;;;;;;;3.70;3.37;;;22.00;51.00;;;;;;5103319;27;20499;-68
2022/08/10 04:13:23;;;;;;;4.90;4.07;;;22.00;51.00;;;;;;5068737;27;20480;-68
2022/08/10 04:15:48;;;;;;;7.80;4.10;;;21.90;51.10;;;;;;5074751;28;20302;-69
2022/08/10 04:18:14;;;;;;;4.70;3.87;;;21.80;51.30;;;;;;5086537;28;20554;-68
2022/08/10 04:21:13;;;;;;;5.33;3.50;;;21.80;51.20;;;;;;5084247;28;20221;-68
2022/08/10 04:23:43;;;;;;;4.30;3.90;;;21.80;51.20;;;;;;5063075;28;20231;-68
2022/08/10 04:26:10;;;;;;;4.90;3.90;;;21.80;51.40;;;;;;5074493;28;20449;-68
2022/08/10 04:28:37;;;;;;;4.87;3.40;;;21.80;51.40;;;;;;5065143;28;20844;-68
2022/08/10 04:31:05;;;;;;;4.37;3.60;;;21.70;51.50;;;;;;5081646;27;21024;-68
2022/08/10 04:33:32;;;;;;;4.33;3.93;;;21.70;51.60;;;;;;5082990;28;20517;-69
2022/08/10 04:35:59;;;;;;;4.20;3.80;;;21.70;51.50;;;;;;5064633;28;20454;-68
2022/08/10 04:38:27;;;;;;;7.43;4.37;;;21.70;51.50;;;;;;5061753;28;20480;-69
2022/08/10 04:40:53;;;;;;;4.73;4.00;;;21.70;51.60;;;;;;5064571;28;20476;-68
2022/08/10 04:43:19;;;;;;;4.50;4.20;;;21.60;51.60;;;;;;5064075;28;20555;-68
2022/08/10 04:45:46;;;;;;;6.83;3.50;;;21.60;51.70;;;;;;5081902;28;20531;-68
2022/08/10 04:48:11;;;;;;;5.83;4.17;;;21.60;51.60;;;;;;5062491;28;20281;-68
2022/08/10 04:50:37;;;;;;;4.20;3.87;;;21.70;51.70;;;;;;5073151;28;20444;-69
2022/08/10 04:53:03;;;;;;;4.17;3.40;;;21.60;51.70;;;;;;5074670;28;20714;-68
2022/08/10 04:55:29;;;;;;;4.20;3.90;;;21.60;51.60;;;;;;5087068;28;20233;-68
2022/08/10 04:57:54;;;;;;;4.00;3.77;;;21.60;51.60;;;;;;5069613;28;20219;-68
2022/08/10 05:00:20;;;;;;;4.27;3.87;;;21.60;51.80;;;;;;5066670;28;20251;-69
2022/08/10 05:02:46;;;;;;;4.60;4.17;;;21.60;51.80;;;;;;5066690;28;20231;-68
2022/08/10 05:05:11;;;;;;;5.20;3.90;;;21.50;51.90;;;;;;5054010;28;20308;-68
2022/08/10 05:07:37;;;;;;;4.00;3.60;;;21.60;51.80;;;;;;5074518;28;20674;-68
2022/08/10 05:10:04;;;;;;;4.00;3.70;;;21.60;51.80;;;;;;5069864;28;20268;-68
2022/08/10 05:12:29;;;;;;;11.77;3.30;;;21.60;51.70;;;;;;5068742;28;20225;-69
2022/08/10 05:14:55;;;;;;;3.23;3.03;;;21.60;51.80;;;;;;5069897;28;20459;-68
2022/08/10 05:17:22;;;;;;;4.13;3.83;;;21.60;51.80;;;;;;5070372;28;20211;-69
2022/08/10 05:19:47;;;;;;;4.40;4.00;;;21.60;51.70;;;;;;5088179;28;20245;-69
2022/08/10 05:22:13;;;;;;;3.93;3.60;;;21.60;51.80;;;;;;5083284;28;21071;-69
2022/08/10 05:24:39;;;;;;;4.97;3.67;;;21.60;51.80;;;;;;5068075;28;20640;-68
2022/08/10 05:27:05;;;;;;;4.13;3.77;;;21.60;52.20;;;;;;5070958;28;20207;-68
2022/08/10 05:29:31;;;;;;;3.70;3.40;;;21.60;52.00;;;;;;5089648;28;20210;-68
2022/08/10 05:31:58;;;;;;;7.73;4.73;;;21.60;52.20;;;;;;5074873;28;20461;-68
2022/08/10 05:34:26;;;;;;;4.70;4.30;;;21.60;52.30;;;;;;5061964;28;20453;-69
2022/08/10 05:36:56;;;;;;;3.87;3.57;;;21.60;52.40;;;;;;5052157;28;20464;-68
2022/08/10 05:39:22;;;;;;;9.90;3.80;;;21.70;52.50;;;;;;5060197;28;20485;-68
2022/08/10 05:41:52;;;;;;;4.17;3.77;;;21.70;52.60;;;;;;5054276;28;20452;-69
2022/08/10 05:44:20;;;;;;;4.53;4.13;;;21.70;52.40;;;;;;5067591;28;20867;-68
2022/08/10 05:46:47;;;;;;;4.50;3.50;;;21.70;52.30;;;;;;5065369;28;20453;-68
2022/08/10 05:49:13;;;;;;;6.67;3.97;;;21.80;52.50;;;;;;5091712;28;20457;-68
2022/08/10 05:51:39;;;;;;;3.97;3.67;;;21.80;52.60;;;;;;5068615;28;20450;-68
2022/08/10 05:54:13;;;;;;;5.33;3.40;;;21.80;52.70;;;;;;5066574;28;20225;-69
2022/08/10 05:56:44;;;;;;;4.07;3.77;;;21.90;53.00;;;;;;5064734;28;20279;-68
2022/08/10 05:59:13;;;;;;;3.73;3.43;;;21.90;52.90;;;;;;5068488;28;20457;-68
2022/08/10 06:01:42;;;;;;;4.70;3.53;;;21.90;52.80;;;;;;5068909;28;20445;-70
2022/08/10 06:04:12;;;;;;;5.33;3.90;;;22.00;53.10;;;;;;5069064;28;20480;-69
2022/08/10 06:06:40;;;;;;;9.57;3.73;;;22.00;53.10;;;;;;5069048;28;20946;-69
2022/08/10 06:09:07;;;;;;;3.50;3.20;;;22.00;53.10;;;;;;5048569;28;20465;-69
2022/08/10 06:11:36;;;;;;;4.87;4.47;;;22.10;53.30;;;;;;5068322;28;20473;-68
2022/08/10 06:16:49;;;;;;;3.90;3.60;;;22.20;53.10;;;;;;5064185;28;20445;-69
2022/08/10 06:19:15;;;;;;;5.80;3.60;;;22.30;53.40;;;;;;5061609;28;20449;-69
2022/08/10 06:21:43;;;;;;;5.77;3.90;;;22.30;53.50;;;;;;5068683;28;20465;-69
2022/08/10 06:24:10;;;;;;;4.43;3.83;;;22.40;53.50;;;;;;5055322;28;20461;-69
2022/08/10 06:26:36;;;;;;;4.40;4.10;;;22.40;53.40;;;;;;5063159;28;20476;-69
2022/08/10 06:29:09;;;;;;;4.40;4.00;;;22.50;53.40;;;;;;5082123;28;20453;-69
2022/08/10 06:31:43;;;;;;;4.57;4.13;;;22.50;53.60;;;;;;5083909;28;20490;-68
2022/08/10 06:34:11;;;;;;;4.10;3.77;;;22.60;53.50;;;;;;5067269;28;20894;-68
2022/08/10 06:36:40;;;;;;;3.90;3.40;;;22.70;53.40;;;;;;5059659;28;20495;-68
2022/08/10 06:39:06;;;;;;;6.73;4.00;;;22.70;54.00;;;;;;5067826;28;20452;-68
2022/08/10 06:41:35;;;;;;;4.10;3.80;;;22.70;53.50;;;;;;5068572;28;20453;-69
2022/08/10 06:44:07;;;;;;;6.17;3.63;;;22.80;53.50;;;;;;5066970;28;20465;-69
2022/08/10 06:46:38;;;;;;;4.00;3.57;;;22.90;53.50;;;;;;5064730;28;20972;-69
2022/08/10 06:49:06;;;;;;;6.80;4.07;;;22.90;53.50;;;;;;5068375;28;20455;-69
2022/08/10 06:51:38;;;;;;;4.67;4.33;;;23.00;53.50;;;;;;5066411;28;20493;-69
2022/08/10 06:54:07;;;;;;;5.53;4.10;;;23.00;53.60;;;;;;5066536;28;20461;-69
2022/08/10 06:56:40;;;;;;;4.07;3.67;;;23.10;53.70;;;;;;5067700;28;21059;-68
2022/08/10 06:59:13;;;;;;;4.27;3.87;;;23.10;54.00;;;;;;5059792;28;20449;-68
2022/08/10 07:01:42;;;;;;;5.10;3.50;;;23.20;53.50;;;;;;5057932;28;20457;-68
2022/08/10 07:04:12;;;;;;;5.83;4.10;;;23.20;53.50;;;;;;5067298;28;20457;-69
2022/08/10 07:06:45;;;;;;;5.00;3.80;;;23.30;53.70;;;;;;5046695;28;20453;-68
2022/08/10 07:09:14;;;;;;;8.03;3.93;;;23.40;53.60;;;;;;5051313;28;20549;-69
2022/08/10 07:11:42;;;;;;;3.90;3.50;;;23.50;53.70;;;;;;5068025;28;20608;-69
2022/08/10 07:14:11;;;;;;;4.73;3.80;;;23.60;53.60;;;;;;5052487;28;20533;-69
2022/08/10 07:16:39;;;;;;;5.50;4.20;;;23.70;53.40;;;;;;5050992;28;20441;-69
2022/08/10 07:19:07;;;;;;;4.43;4.00;;;23.70;53.40;;;;;;5066579;28;20465;-69
2022/08/10 07:21:34;;;;;;;4.50;3.93;;;23.80;53.40;;;;;;5060838;28;20460;-69
2022/08/10 07:24:01;;;;;;;4.47;3.67;;;23.90;53.40;;;;;;5066453;28;20483;-68
2022/08/10 07:26:29;;;;;;;4.37;4.07;;;24.00;53.30;;;;;;5066592;28;20460;-68
2022/08/10 07:28:56;;;;;;;3.80;3.40;;;24.10;53.30;;;;;;5065090;28;20496;-68
2022/08/10 07:31:23;;;;;;;5.23;4.13;;;24.20;53.30;;;;;;5067094;28;20884;-69
2022/08/10 07:33:54;;;;;;;4.00;3.70;;;24.30;53.20;;;;;;5064141;28;20536;-69
2022/08/10 07:36:22;;;;;;;4.37;3.97;;;24.30;53.20;;;;;;5064275;28;20458;-69
2022/08/10 07:38:52;;;;;;;7.17;4.67;;;24.30;53.30;;;;;;5067741;28;20445;-68
2022/08/10 07:41:21;;;;;;;4.33;3.93;;;24.50;53.30;;;;;;5063835;28;20833;-69
2022/08/10 07:43:48;;;;;;;3.97;3.70;;;24.50;53.10;;;;;;5067799;28;20503;-68
2022/08/10 07:46:16;;;;;;;4.47;4.17;;;24.60;53.20;;;;;;5064973;28;20450;-68
2022/08/10 07:48:47;;;;;;;4.57;4.07;;;24.70;53.10;;;;;;5060392;28;20475;-69
2022/08/10 07:51:17;;;;;;;3.97;3.70;;;24.80;53.10;;;;;;5067312;28;20982;-68
2022/08/10 07:53:49;;;;;;;4.60;3.97;;;24.80;53.00;;;;;;5055223;28;20451;-68
2022/08/10 07:56:16;;;;;;;4.47;4.10;;;24.80;53.10;;;;;;5032153;28;20454;-69
2022/08/10 07:58:52;;;;;;;6.23;3.77;;;24.90;53.10;;;;;;5067231;28;20457;-69
2022/08/10 08:01:21;;;;;;;4.17;3.87;;;25.00;53.10;;;;;;5057787;28;20862;-69
2022/08/10 08:03:49;;;;;;;5.93;3.93;;;25.10;53.10;;;;;;5059426;28;20466;-69
2022/08/10 08:06:16;;;;;;;4.17;3.83;;;25.20;53.10;;;;;;5059571;28;20454;-69
2022/08/10 08:08:44;;;;;;;3.90;3.60;;;25.30;53.00;;;;;;5063504;28;20520;-69
2022/08/10 08:11:12;;;;;;;4.50;4.10;;;25.40;52.90;;;;;;5068287;28;20855;-68
2022/08/10 08:13:39;;;;;;;4.27;3.87;;;25.50;52.90;;;;;;5066184;28;21031;-69
2022/08/10 08:16:06;;;;;;;4.13;3.57;;;25.60;52.90;;;;;;5051884;28;20821;-69
2022/08/10 08:18:34;;;;;;;5.50;4.10;;;25.70;52.90;;;;;;5058287;28;20527;-69
2022/08/10 08:21:02;;;;;;;4.10;3.77;;;25.80;52.90;;;;;;5064799;28;20475;-69
2022/08/10 08:23:29;;;;;;;4.07;3.67;;;25.80;52.90;;;;;;5069582;28;20612;-68
2022/08/10 08:25:56;;;;;;;3.77;3.50;;;25.90;52.80;;;;;;5065543;28;20456;-69
2022/08/10 08:28:23;;;;;;;4.20;3.77;;;25.90;52.60;;;;;;5065600;28;20459;-69
2022/08/10 08:30:50;;;;;;;4.33;3.97;;;26.00;52.50;;;;;;5070227;28;20457;-69
2022/08/10 08:33:17;;;;;;;4.20;3.80;;;26.10;52.60;;;;;;5056745;28;20575;-69
2022/08/10 08:35:44;;;;;;;4.20;3.70;;;26.10;52.40;;;;;;5085175;28;20480;-69
2022/08/10 08:38:11;;;;;;;3.80;3.50;;;26.20;53.00;;;;;;5070408;28;20477;-69
2022/08/10 08:40:39;;;;;;;4.20;3.80;;;26.30;52.60;;;;;;5069233;27;20530;-69
2022/08/10 08:43:26;;;;;;;3.93;3.63;;;26.40;52.40;;;;;;5080118;28;20516;-69
2022/08/10 08:46:27;;;;;;;4.43;4.00;;;26.50;52.20;;;;;;5070749;28;20231;-69
2022/08/10 08:49:14;;;;;;;4.83;3.30;;;26.70;52.10;;;;;;5080858;28;20257;-69
2022/08/10 08:51:47;;;;;;;3.43;3.17;;;26.80;52.00;;;;;;5063112;27;20453;-68
2022/08/10 08:54:35;;;;;;;4.07;3.77;;;26.80;52.00;;;;;;5069894;28;20497;-69
2022/08/10 08:57:42;;;;;;;3.97;3.57;;;26.90;51.90;;;;;;5066719;28;20480;-69
2022/08/10 09:00:13;;;;;;;3.93;3.63;;;27.00;51.90;;;;;;5063038;28;20471;-69
2022/08/10 09:02:51;;;;;;;3.77;3.20;;;27.10;51.80;;;;;;5069440;28;20879;-69
2022/08/10 09:05:51;;;;;;;4.07;3.67;;;27.20;51.70;;;;;;5069337;28;20477;-69
2022/08/10 09:08:53;;;;;;;3.93;3.63;;;27.30;51.80;;;;;;5063057;28;20459;-70
2022/08/10 09:11:51;;;;;;;4.50;3.90;;;27.40;51.30;;;;;;5067738;28;20236;-69
2022/08/10 09:14:35;;;;;;;3.60;3.40;;;27.50;51.10;;;;;;5042711;28;20236;-68
2022/08/10 09:17:06;;;;;;;3.75;3.30;;;27.50;51.10;;;;;;5069839;28;20306;-69
2022/08/10 09:19:47;;;;;;;3.88;3.55;;;27.70;51.10;;;;;;5076637;28;20213;-69
2022/08/10 09:22:32;;;;;;;3.13;2.90;;;27.70;51.00;;;;;;5064093;28;20255;-69
2022/08/10 09:25:12;;;;;;;2.97;2.72;;;27.90;51.00;;;;;;5056980;28;20703;-70
2022/08/10 09:28:02;;;;;;;3.15;2.92;;;28.10;50.90;;;;;;5063141;28;20210;-69
2022/08/10 09:30:40;;;;;;;3.20;2.90;;;28.20;50.60;;;;;;5069522;28;20243;-69
2022/08/10 09:33:22;;;;;;;3.45;2.80;;;28.40;50.50;;;;;;5088089;28;20318;-69
2022/08/10 09:36:13;;;;;;;3.33;3.13;;;28.40;50.00;;;;;;5068443;28;20259;-69
2022/08/10 09:39:06;;;;;;;2.88;2.67;;;28.30;50.10;;;;;;5075960;28;20217;-69
2022/08/10 09:41:50;;;;;;;3.35;3.15;;;28.30;49.80;;;;;;5069979;28;20235;-69
2022/08/10 09:44:38;;;;;;;3.28;3.10;;;28.30;49.70;;;;;;5040013;28;20247;-69
2022/08/10 09:47:12;;;;;;;3.55;3.10;;;28.50;49.80;;;;;;5029894;28;20233;-70
2022/08/10 09:50:03;;;;;;;3.17;2.88;;;28.70;49.50;;;;;;5044316;28;20222;-72
2022/08/10 09:53:06;;;;;;;4.40;4.00;;;28.80;49.40;;;;;;5032174;28;20271;-69
2022/08/10 09:55:38;;;;;;;3.00;2.90;;;28.80;49.40;;;;;;5056435;28;20251;-69
2022/08/10 09:58:26;;;;;;;3.22;3.03;;;28.90;49.30;;;;;;5072350;28;20232;-68
2022/08/10 10:01:27;;;;;;;3.65;3.20;;;29.10;48.90;;;;;;5045315;28;20223;-69
2022/08/10 10:04:08;;;;;;;7.03;3.25;;;29.30;48.90;;;;;;5037251;28;20239;-69
2022/08/10 10:06:57;;;;;;;3.40;3.20;;;29.50;48.50;;;;;;5046480;28;20596;-68
2022/08/10 10:09:42;;;;;;;3.67;3.38;;;29.50;48.50;;;;;;5048278;28;20230;-68
2022/08/10 10:12:46;;;;;;;3.33;3.13;;;29.60;48.50;;;;;;5057727;28;20603;-68
2022/08/10 10:15:32;;;;;;;3.75;3.28;;;29.60;48.70;;;;;;5049234;28;20258;-69
2022/08/10 10:18:01;;;;;;;3.35;3.15;;;29.70;48.50;;;;;;5051990;28;20293;-69
2022/08/10 10:20:31;;;;;;;3.50;3.30;;;29.70;48.30;;;;;;5052248;28;20236;-69
2022/08/10 10:23:34;;;;;;;3.33;3.03;;;29.70;48.20;;;;;;5048898;28;20245;-67
2022/08/10 10:26:17;;;;;;;3.28;3.08;;;29.80;48.00;;;;;;5075222;28;20589;-67
2022/08/10 10:29:03;;;;;;;3.72;3.53;;;29.90;48.00;;;;;;5068446;28;20225;-68
2022/08/10 10:31:33;;;;;;;7.65;3.50;;;30.10;47.90;;;;;;5077468;28;20232;-69
2022/08/10 10:33:58;;;;;;;4.63;3.60;;;30.10;47.90;;;;;;5057762;28;20824;-69
2022/08/10 10:36:27;;;;;;;4.32;3.80;;;30.20;47.60;;;;;;5056317;28;20234;-70
2022/08/10 10:38:56;;;;;;;4.05;3.75;;;30.10;47.60;;;;;;5051714;28;20272;-69
2022/08/10 10:41:31;;;;;;;5.30;3.63;;;30.10;47.50;;;;;;5054684;28;20235;-69
2022/08/10 10:44:21;;;;;;;3.92;3.63;;;30.20;47.70;;;;;;5048432;28;20273;-69
2022/08/10 10:47:18;;;;;;;3.97;3.50;;;30.30;47.70;;;;;;5048785;28;20219;-69
2022/08/10 10:49:56;;;;;;;4.03;3.72;;;30.30;47.60;;;;;;5044528;28;20242;-69
2022/08/10 10:52:31;;;;;;;3.75;3.50;;;30.30;47.50;;;;;;5066093;28;20242;-68
2022/08/10 10:55:14;;;;;;;4.35;3.95;;;30.40;47.60;;;;;;5064866;28;20214;-69
2022/08/10 10:58:27;;;;;;;3.45;3.17;;;30.50;47.70;;;;;;5063963;28;20210;-69
2022/08/10 11:00:56;;;;;;;3.58;3.38;;;30.50;47.30;;;;;;5032342;28;20298;-69
2022/08/10 11:03:43;;;;;;;3.85;3.60;;;30.30;47.10;;;;;;5060282;28;20883;-70
2022/08/10 11:06:46;;;;;;;3.88;3.58;;;30.20;47.20;;;;;;5068576;28;20239;-69
2022/08/10 11:09:21;;;;;;;3.75;3.50;;;30.20;47.10;;;;;;5065867;28;20264;-68
2022/08/10 11:11:53;;;;;;;4.22;3.83;;;30.10;47.20;;;;;;5066985;28;20248;-69
2022/08/10 11:14:38;;;;;;;3.45;3.25;;;30.00;47.20;;;;;;5039258;28;20234;-69
2022/08/10 11:17:48;;;;;;;5.20;3.95;;;30.00;47.20;;;;;;5067678;28;20226;-68
2022/08/10 11:20:50;;;;;;;3.60;3.40;;;29.90;46.70;;;;;;5065294;28;20642;-68
2022/08/10 11:23:30;;;;;;;3.75;3.45;;;30.00;46.80;;;;;;5037398;28;20237;-68
2022/08/10 11:26:08;;;;;;;4.28;3.90;;;30.10;46.50;;;;;;5055467;28;20225;-69
2022/08/10 11:28:48;;;;;;;3.78;3.58;;;30.00;46.00;;;;;;5062486;28;20210;-68
2022/08/10 11:31:14;;;;;;;3.30;3.05;;;29.90;46.10;;;;;;5059764;28;20577;-69
2022/08/10 11:33:49;;;;;;;3.38;3.17;;;30.00;46.00;;;;;;5064689;28;20232;-69
2022/08/10 11:36:36;;;;;;;5.07;3.60;;;30.20;46.10;;;;;;5059795;28;20233;-69
2022/08/10 11:39:09;;;;;;;3.97;3.67;;;30.40;45.80;;;;;;5059581;28;20222;-68
2022/08/10 11:41:43;;;;;;;3.95;3.65;;;30.50;45.70;;;;;;5060816;28;20303;-68
2022/08/10 11:44:30;;;;;;;3.95;3.60;;;30.70;45.80;;;;;;5061193;28;20354;-68
2022/08/10 11:47:21;;;;;;;4.10;3.70;;;30.90;45.60;;;;;;5067179;28;20226;-69
2022/08/10 11:49:58;;;;;;;3.88;3.65;;;31.10;45.50;;;;;;5064239;28;20272;-69
2022/08/10 11:52:27;;;;;;;4.18;3.83;;;31.20;45.80;;;;;;5056176;28;20707;-69
2022/08/10 11:54:54;;;;;;;4.55;3.97;;;31.30;45.60;;;;;;5042056;28;20324;-69
2022/08/10 11:57:24;;;;;;;6.07;3.53;;;31.40;45.80;;;;;;5065584;28;20628;-68
2022/08/10 11:59:55;;;;;;;3.70;3.50;;;31.40;45.40;;;;;;5058069;28;20237;-68
2022/08/10 12:02:23;;;;;;;3.67;3.47;;;31.50;45.50;;;;;;5055153;28;20235;-68
2022/08/10 12:04:58;;;;;;;3.53;3.33;;;31.40;45.40;;;;;;5062708;28;20220;-68
2022/08/10 12:07:26;;;;;;;3.47;3.28;;;31.30;45.50;;;;;;5053767;28;20234;-69
2022/08/10 12:09:54;;;;;;;6.43;3.50;;;31.30;45.20;;;;;;5060667;28;20230;-69
2022/08/10 12:12:21;;;;;;;3.70;3.50;;;31.20;45.40;;;;;;5048165;28;20225;-69
2022/08/10 12:15:07;;;;;;;4.13;3.83;;;31.10;45.40;;;;;;5053252;28;20214;-69
2022/08/10 12:17:41;;;;;;;3.60;3.30;;;31.00;45.70;;;;;;5060405;28;20259;-68
2022/08/10 12:20:08;;;;;;;3.33;3.10;;;31.20;45.30;;;;;;5051978;28;20231;-69
2022/08/10 12:22:55;;;;;;;4.00;3.72;;;31.30;45.20;;;;;;5049929;28;20223;-68
2022/08/10 12:25:51;;;;;;;3.83;3.55;;;31.20;45.10;;;;;;5048414;28;20216;-69
2022/08/10 12:28:22;;;;;;;4.32;3.47;;;31.00;45.10;;;;;;5078558;28;20761;-70
2022/08/10 12:30:56;;;;;;;3.80;3.60;;;30.90;45.50;;;;;;5051572;28;20207;-68
2022/08/10 12:33:27;;;;;;;5.15;3.85;;;30.80;45.60;;;;;;5060732;28;20251;-70
2022/08/10 12:36:08;;;;;;;3.85;3.63;;;30.70;45.70;;;;;;5085150;28;20222;-68
2022/08/10 12:38:38;;;;;;;4.45;4.15;;;30.90;45.50;;;;;;5058706;28;20222;-68
2022/08/10 12:41:12;;;;;;;3.63;3.40;;;31.00;45.70;;;;;;5076941;28;20222;-68
2022/08/10 12:43:57;;;;;;;3.60;3.40;;;31.00;45.40;;;;;;5061812;28;20241;-68
2022/08/10 12:46:38;;;;;;;3.90;3.58;;;31.10;45.60;;;;;;5053149;28;20714;-68
2022/08/10 12:49:37;;;;;;;5.05;3.53;;;31.30;45.20;;;;;;5033351;28;20223;-68
2022/08/10 12:52:05;;;;;;;4.20;3.80;;;31.20;45.00;;;;;;5056599;28;20238;-68
2022/08/10 12:54:35;;;;;;;3.72;3.53;;;31.10;45.30;;;;;;5069445;28;20233;-69
2022/08/10 12:57:06;;;;;;;3.72;3.53;;;31.00;45.20;;;;;;5067085;28;20288;-69
2022/08/10 12:59:36;;;;;;;3.70;3.50;;;31.00;45.20;;;;;;5051470;28;20264;-68
2022/08/10 13:02:03;;;;;;;3.92;3.72;;;31.00;45.10;;;;;;5072229;28;20222;-68
2022/08/10 13:04:34;;;;;;;3.53;3.33;;;31.10;45.00;;;;;;5067979;28;20227;-69
2022/08/10 13:07:02;;;;;;;3.53;3.30;;;31.20;45.30;;;;;;5068935;28;20238;-68
2022/08/10 13:09:30;;;;;;;3.80;3.60;;;31.20;45.20;;;;;;5072463;28;20219;-69
2022/08/10 13:12:05;;;;;;;4.28;3.85;;;31.10;44.70;;;;;;5084709;28;20773;-69
2022/08/10 13:14:40;;;;;;;3.63;3.40;;;31.20;44.70;;;;;;5078405;28;20246;-68
2022/08/10 13:17:07;;;;;;;3.70;3.38;;;31.30;44.90;;;;;;5082152;28;20301;-68
2022/08/10 13:19:43;;;;;;;3.88;3.58;;;31.30;45.00;;;;;;5067297;28;20225;-68
2022/08/10 13:22:11;;;;;;;3.67;3.45;;;31.40;44.80;;;;;;5067797;28;20660;-69
2022/08/10 13:24:42;;;;;;;3.90;3.60;;;31.10;44.80;;;;;;5061939;28;20677;-69